createdAt,value
2023-05-07T00:00:30.856Z,99250.63
2023-05-07T00:02:59.251Z,99247.34
2023-05-07T00:05:29.292Z,99242.41
2023-05-07T00:07:59.525Z,99250.25
2023-05-07T00:10:28.593Z,99243.69
2023-05-07T00:12:56.998Z,99251.53
2023-05-07T00:15:25.407Z,99250.19
2023-05-07T00:17:53.894Z,99251.31
2023-05-07T00:20:22.335Z,99250.31
2023-05-07T00:22:52.083Z,99249.50
2023-05-07T00:25:21.497Z,99248.16
2023-05-07T00:27:49.938Z,99249.31
2023-05-07T00:30:18.573Z,99254.88
2023-05-07T00:32:47.094Z,99258.78
2023-05-07T00:35:15.479Z,99244.38
2023-05-07T00:37:43.893Z,99249.94
2023-05-07T00:40:14.208Z,99252.22
2023-05-07T00:42:42.708Z,99254.16
2023-05-07T00:45:11.945Z,99248.94
2023-05-07T00:47:40.976Z,99244.50
2023-05-07T00:50:13.797Z,99250.38
2023-05-07T00:52:43.365Z,99241.22
2023-05-07T00:55:15.603Z,99245.78
2023-05-07T00:57:44.581Z,99244.97
2023-05-07T01:00:14.932Z,99250.00
2023-05-07T01:02:44.443Z,99238.91
2023-05-07T01:05:17.114Z,99239.22
2023-05-07T01:07:46.613Z,99243.94
2023-05-07T01:10:17.689Z,99241.78
2023-05-07T01:12:48.144Z,99240.16
2023-05-07T01:15:17.383Z,99234.41
2023-05-07T01:17:46.083Z,99239.97
2023-05-07T01:20:15.323Z,99240.28
2023-05-07T01:22:45.880Z,99244.19
2023-05-07T01:25:14.671Z,99249.75
2023-05-07T01:27:43.257Z,99243.06
2023-05-07T01:30:12.893Z,99250.25
2023-05-07T01:32:46.916Z,99252.19
2023-05-07T01:35:21.282Z,99252.53
2023-05-07T01:37:51.553Z,99260.53
2023-05-07T01:40:20.614Z,99260.53
2023-05-07T01:42:49.587Z,99265.09
2023-05-07T01:45:17.935Z,99260.97
2023-05-07T01:47:46.948Z,99267.19
2023-05-07T01:50:17.983Z,99265.31
2023-05-07T01:52:46.448Z,99263.97
2023-05-07T01:55:16.230Z,99263.75
2023-05-07T01:57:44.982Z,99268.81
2023-05-07T02:00:14.593Z,99264.72
2023-05-07T02:02:43.293Z,99268.13
2023-05-07T02:05:11.878Z,99267.59
2023-05-07T02:07:40.268Z,99270.69
2023-05-07T02:10:10.276Z,99262.19
2023-05-07T02:12:40.161Z,99265.25
2023-05-07T02:15:10.071Z,99257.25
2023-05-07T02:17:41.339Z,99271.13
2023-05-07T02:20:14.439Z,99273.91
2023-05-07T02:22:42.913Z,99271.97
2023-05-07T02:25:11.473Z,99268.03
2023-05-07T02:27:41.310Z,99268.03
2023-05-07T02:30:11.331Z,99276.06
2023-05-07T02:32:39.936Z,99274.09
2023-05-07T02:35:09.352Z,99264.97
2023-05-07T02:37:37.760Z,99269.69
2023-05-07T02:40:08.158Z,99265.91
2023-05-07T02:42:36.591Z,99270.28
2023-05-07T02:45:07.979Z,99277.28
2023-05-07T02:47:36.392Z,99282.66
2023-05-07T02:50:05.900Z,99273.81
2023-05-07T02:52:34.290Z,99278.56
2023-05-07T02:55:03.622Z,99276.72
2023-05-07T02:57:32.276Z,99283.38
2023-05-07T03:00:01.137Z,99285.13
2023-05-07T03:02:30.927Z,99279.91
2023-05-07T03:04:59.308Z,99283.28
2023-05-07T03:07:27.611Z,99288.34
2023-05-07T03:09:55.956Z,99284.22
2023-05-07T03:12:24.371Z,99290.38
2023-05-07T03:14:52.749Z,99291.03
2023-05-07T03:17:21.206Z,99298.00
2023-05-07T03:19:51.273Z,99297.78
2023-05-07T03:22:19.689Z,99303.94
2023-05-07T03:24:48.013Z,99310.13
2023-05-07T03:27:16.401Z,99304.06
2023-05-07T03:29:44.700Z,99313.00
2023-05-07T03:32:13.169Z,99295.84
2023-05-07T03:34:41.699Z,99310.84
2023-05-07T03:37:11.556Z,99311.97
2023-05-07T03:39:39.882Z,99307.56
2023-05-07T03:42:08.360Z,99315.88
2023-05-07T03:44:37.256Z,99320.91
2023-05-07T03:47:06.302Z,99320.41
2023-05-07T03:49:34.654Z,99333.44
2023-05-07T03:52:03.063Z,99324.00
2023-05-07T03:54:33.332Z,99325.63
2023-05-07T03:57:01.744Z,99324.50
2023-05-07T03:59:30.063Z,99329.75
2023-05-07T04:01:58.429Z,99330.25
2023-05-07T04:04:27.050Z,99337.16
2023-05-07T04:06:55.473Z,99336.53
2023-05-07T04:09:23.911Z,99334.78
2023-05-07T04:11:53.752Z,99334.19
2023-05-07T04:14:22.182Z,99340.44
2023-05-07T04:16:50.617Z,99338.41
2023-05-07T04:19:19.086Z,99333.25
2023-05-07T04:21:47.453Z,99342.31
2023-05-07T04:24:16.036Z,99345.28
2023-05-07T04:26:44.523Z,99346.00
2023-05-07T04:29:14.269Z,99343.94
2023-05-07T04:31:45.289Z,99351.84
2023-05-07T04:34:13.934Z,99364.50
2023-05-07T04:36:42.267Z,99371.59
2023-05-07T04:39:11.756Z,99371.81
2023-05-07T04:41:40.119Z,99374.16
2023-05-07T04:44:08.521Z,99377.66
2023-05-07T04:46:38.302Z,99380.84
2023-05-07T04:49:07.803Z,99371.78
2023-05-07T04:51:36.166Z,99381.63
2023-05-07T04:54:04.619Z,99378.41
2023-05-07T04:56:32.945Z,99392.19
2023-05-07T04:59:01.415Z,99383.44
2023-05-07T05:01:29.890Z,99389.88
2023-05-07T05:04:01.245Z,99383.88
2023-05-07T05:06:29.842Z,99382.31
2023-05-07T05:08:58.134Z,99381.56
2023-05-07T05:11:26.802Z,99383.06
2023-05-07T05:13:55.192Z,99387.41
2023-05-07T05:16:23.646Z,99395.31
2023-05-07T05:18:53.082Z,99388.47
2023-05-07T05:21:23.293Z,99399.47
2023-05-07T05:23:51.652Z,99401.31
2023-05-07T05:26:20.050Z,99412.31
2023-05-07T05:28:48.471Z,99411.03
2023-05-07T05:31:16.881Z,99403.88
2023-05-07T05:33:45.870Z,99408.84
2023-05-07T05:36:14.432Z,99410.56
2023-05-07T05:38:44.963Z,99413.38
2023-05-07T05:41:13.339Z,99419.78
2023-05-07T05:43:41.701Z,99419.72
2023-05-07T05:46:12.890Z,99427.97
2023-05-07T05:48:41.640Z,99425.53
2023-05-07T05:51:10.040Z,99421.16
2023-05-07T05:53:38.440Z,99430.19
2023-05-07T05:56:09.209Z,99427.41
2023-05-07T05:58:37.669Z,99426.66
2023-05-07T06:01:06.400Z,99425.31
2023-05-07T06:03:34.837Z,99423.34
2023-05-07T06:06:03.295Z,99418.28
2023-05-07T06:08:32.714Z,99427.13
2023-05-07T06:11:01.806Z,99434.03
2023-05-07T06:13:31.621Z,99432.88
2023-05-07T06:16:00.127Z,99424.16
2023-05-07T06:18:28.524Z,99432.19
2023-05-07T06:20:56.812Z,99439.75
2023-05-07T06:23:25.164Z,99440.41
2023-05-07T06:25:53.917Z,99442.69
2023-05-07T06:28:22.232Z,99443.63
2023-05-07T06:30:52.057Z,99445.22
2023-05-07T06:33:21.051Z,99444.88
2023-05-07T06:35:49.533Z,99435.97
2023-05-07T06:38:18.489Z,99444.16
2023-05-07T06:40:50.033Z,99439.22
2023-05-07T06:43:18.458Z,99443.97
2023-05-07T06:45:46.856Z,99445.69
2023-05-07T06:48:16.612Z,99447.41
2023-05-07T06:50:45.024Z,99450.97
2023-05-07T06:53:13.562Z,99444.88
2023-05-07T06:55:42.681Z,99449.09
2023-05-07T06:58:11.114Z,99442.94
2023-05-07T07:00:39.613Z,99448.19
2023-05-07T07:03:08.005Z,99448.56
2023-05-07T07:05:38.214Z,99455.13
2023-05-07T07:08:07.272Z,99457.72
2023-05-07T07:10:35.784Z,99456.00
2023-05-07T07:13:04.189Z,99457.91
2023-05-07T07:15:32.728Z,99463.25
2023-05-07T07:18:01.258Z,99464.91
2023-05-07T07:20:29.863Z,99466.97
2023-05-07T07:23:00.679Z,99461.88
2023-05-07T07:25:29.128Z,99464.94
2023-05-07T07:27:57.452Z,99457.72
2023-05-07T07:30:25.979Z,99463.81
2023-05-07T07:32:54.799Z,99470.84
2023-05-07T07:35:23.227Z,99470.97
2023-05-07T07:37:52.070Z,99471.09
2023-05-07T07:40:22.555Z,99471.19
2023-05-07T07:42:50.919Z,99469.66
2023-05-07T07:45:19.374Z,99485.28
2023-05-07T07:47:47.821Z,99484.94
2023-05-07T07:50:25.210Z,99482.78
2023-05-07T07:53:04.563Z,99481.72
2023-05-07T07:55:34.249Z,99489.13
2023-05-07T07:58:02.648Z,99490.50
2023-05-07T08:00:31.065Z,99480.06
2023-05-07T08:02:59.626Z,99484.81
2023-05-07T08:05:28.281Z,99483.69
2023-05-07T08:07:56.613Z,99489.81
2023-05-07T08:10:24.939Z,99486.31
2023-05-07T08:12:54.785Z,99483.31
2023-05-07T08:15:23.283Z,99484.06
2023-05-07T08:17:51.832Z,99489.19
2023-05-07T08:20:20.678Z,99492.94
2023-05-07T08:22:49.047Z,99493.88
2023-05-07T08:25:17.450Z,99496.09
2023-05-07T08:27:46.058Z,99494.69
2023-05-07T08:30:17.214Z,99491.63
2023-05-07T08:32:45.744Z,99481.06
2023-05-07T08:35:14.226Z,99499.88
2023-05-07T08:37:42.676Z,99490.38
2023-05-07T08:40:14.387Z,99484.63
2023-05-07T08:42:44.164Z,99487.69
2023-05-07T08:45:13.337Z,99490.97
2023-05-07T08:47:48.849Z,99490.16
2023-05-07T08:50:17.641Z,99495.66
2023-05-07T08:52:46.098Z,99492.78
2023-05-07T08:55:16.241Z,99495.34
2023-05-07T08:57:44.801Z,99489.19
2023-05-07T09:00:15.141Z,99485.75
2023-05-07T09:02:45.000Z,99482.13
2023-05-07T09:05:13.817Z,99485.69
2023-05-07T09:07:42.475Z,99482.00
2023-05-07T09:10:11.811Z,99490.97
2023-05-07T09:12:41.036Z,99487.56
2023-05-07T09:15:11.412Z,99489.84
2023-05-07T09:17:40.064Z,99488.72
2023-05-07T09:20:11.428Z,99491.44
2023-05-07T09:22:40.696Z,99485.25
2023-05-07T09:25:11.376Z,99481.25
2023-05-07T09:27:40.188Z,99471.34
2023-05-07T09:30:10.116Z,99472.72
2023-05-07T09:32:40.162Z,99470.44
2023-05-07T09:35:18.174Z,99464.28
2023-05-07T09:37:47.416Z,99459.25
2023-05-07T09:40:24.355Z,99466.28
2023-05-07T09:42:53.155Z,99473.81
2023-05-07T09:45:25.802Z,99481.72
2023-05-07T09:47:58.702Z,99481.28
2023-05-07T09:50:31.949Z,99472.00
2023-05-07T09:53:01.728Z,99477.25
2023-05-07T09:55:30.543Z,99482.63
2023-05-07T09:58:00.959Z,99475.25
2023-05-07T10:00:31.024Z,99469.94
2023-05-07T10:03:00.554Z,99483.84
2023-05-07T10:05:30.917Z,99484.16
2023-05-07T10:08:00.910Z,99480.22
2023-05-07T10:10:31.293Z,99463.84
2023-05-07T10:13:00.384Z,99462.94
2023-05-07T10:15:30.680Z,99464.47
2023-05-07T10:17:59.486Z,99469.25
2023-05-07T10:20:30.651Z,99468.19
2023-05-07T10:23:00.736Z,99472.84
2023-05-07T10:25:33.468Z,99466.28
2023-05-07T10:28:06.789Z,99462.19
2023-05-07T10:30:50.566Z,99466.75
2023-05-07T10:33:25.772Z,99468.91
2023-05-07T10:36:01.167Z,99464.91
2023-05-07T10:38:30.466Z,99470.09
2023-05-07T10:40:59.157Z,99467.22
2023-05-07T10:43:27.565Z,99464.19
2023-05-07T10:46:13.597Z,99470.03
2023-05-07T10:49:13.419Z,99461.31
2023-05-07T10:51:43.202Z,99459.53
2023-05-07T10:54:25.797Z,99457.22
2023-05-07T10:56:54.305Z,99466.25
2023-05-07T10:59:43.834Z,99466.44
2023-05-07T11:02:15.284Z,99463.91
2023-05-07T11:04:44.047Z,99465.44
2023-05-07T11:07:28.201Z,99461.41
2023-05-07T11:10:08.966Z,99457.31
2023-05-07T11:12:57.124Z,99456.63
2023-05-07T11:15:44.419Z,99451.84
2023-05-07T11:18:15.322Z,99446.50
2023-05-07T11:20:59.691Z,99435.81
2023-05-07T11:24:12.651Z,99422.81
2023-05-07T11:26:49.986Z,99425.59
2023-05-07T11:29:22.689Z,99423.66
2023-05-07T11:31:53.158Z,99435.78
2023-05-07T11:34:26.109Z,99429.81
2023-05-07T11:36:56.110Z,99430.28
2023-05-07T11:39:35.607Z,99435.63
2023-05-07T11:42:03.948Z,99437.75
2023-05-07T11:44:47.324Z,99428.03
2023-05-07T11:47:21.027Z,99442.22
2023-05-07T11:49:53.254Z,99430.41
2023-05-07T11:52:24.570Z,99438.44
2023-05-07T11:54:55.832Z,99431.47
2023-05-07T11:57:24.867Z,99441.50
2023-05-07T11:59:55.985Z,99448.19
2023-05-07T12:02:26.055Z,99439.00
2023-05-07T12:04:54.832Z,99448.00
2023-05-07T12:07:23.680Z,99441.22
2023-05-07T12:09:54.117Z,99446.22
2023-05-07T12:12:22.474Z,99452.44
2023-05-07T12:14:51.554Z,99454.63
2023-05-07T12:17:19.978Z,99453.41
2023-05-07T12:19:49.226Z,99451.06
2023-05-07T12:22:17.691Z,99447.72
2023-05-07T12:24:47.801Z,99445.13
2023-05-07T12:27:18.670Z,99441.03
2023-05-07T12:29:48.433Z,99443.00
2023-05-07T12:32:17.762Z,99441.50
2023-05-07T12:34:46.294Z,99444.34
2023-05-07T12:37:15.675Z,99439.97
2023-05-07T12:39:49.271Z,99440.91
2023-05-07T12:42:24.583Z,99440.91
2023-05-07T12:44:53.663Z,99437.66
2023-05-07T12:47:23.902Z,99434.44
2023-05-07T12:49:52.589Z,99425.56
2023-05-07T12:52:21.136Z,99426.00
2023-05-07T12:54:50.679Z,99422.28
2023-05-07T12:57:22.475Z,99426.25
2023-05-07T12:59:50.858Z,99430.13
2023-05-07T13:02:19.273Z,99433.63
2023-05-07T13:04:48.851Z,99433.84
2023-05-07T13:07:17.224Z,99429.72
2023-05-07T13:09:45.516Z,99417.22
2023-05-07T13:12:13.875Z,99426.91
2023-05-07T13:14:43.689Z,99410.56
2023-05-07T13:17:12.045Z,99409.72
2023-05-07T13:19:40.467Z,99409.06
2023-05-07T13:22:08.820Z,99402.63
2023-05-07T13:24:37.157Z,99400.28
2023-05-07T13:27:05.650Z,99398.50
2023-05-07T13:29:33.994Z,99390.03
2023-05-07T13:32:03.775Z,99394.75
2023-05-07T13:34:32.248Z,99397.22
2023-05-07T13:37:00.653Z,99392.53
2023-05-07T13:39:29.040Z,99393.00
2023-05-07T13:41:57.399Z,99390.41
2023-05-07T13:44:26.060Z,99393.38
2023-05-07T13:46:54.532Z,99390.34
2023-05-07T13:49:25.063Z,99397.28
2023-05-07T13:51:53.373Z,99398.00
2023-05-07T13:54:21.871Z,99394.03
2023-05-07T13:56:50.196Z,99403.28
2023-05-07T13:59:18.546Z,99402.00
2023-05-07T14:01:46.860Z,99401.56
2023-05-07T14:04:15.172Z,99403.41
2023-05-07T14:06:45.165Z,99398.50
2023-05-07T14:09:14.411Z,99404.81
2023-05-07T14:11:43.038Z,99403.56
2023-05-07T14:14:12.679Z,99406.31
2023-05-07T14:16:41.156Z,99401.63
2023-05-07T14:19:09.487Z,99408.56
2023-05-07T14:21:37.779Z,99415.81
2023-05-07T14:24:09.502Z,99410.78
2023-05-07T14:26:37.955Z,99413.84
2023-05-07T14:29:06.296Z,99407.19
2023-05-07T14:31:35.038Z,99419.94
2023-05-07T14:34:03.463Z,99416.00
2023-05-07T14:36:32.805Z,99416.47
2023-05-07T14:39:01.338Z,99427.75
2023-05-07T14:41:31.036Z,99428.91
2023-05-07T14:44:00.051Z,99430.88
2023-05-07T14:46:28.737Z,99421.56
2023-05-07T14:48:57.269Z,99434.53
2023-05-07T14:51:26.913Z,99433.34
2023-05-07T14:53:55.626Z,99431.31
2023-05-07T14:56:24.034Z,99431.72
2023-05-07T14:58:53.712Z,99430.19
2023-05-07T15:01:23.462Z,99427.47
2023-05-07T15:03:51.845Z,99437.88
2023-05-07T15:06:20.151Z,99427.13
2023-05-07T15:08:49.512Z,99425.13
2023-05-07T15:11:17.811Z,99430.09
2023-05-07T15:13:46.186Z,99431.38
2023-05-07T15:16:16.138Z,99430.50
2023-05-07T15:18:45.580Z,99421.56
2023-05-07T15:21:14.262Z,99434.03
2023-05-07T15:23:43.314Z,99434.03
2023-05-07T15:26:11.718Z,99437.16
2023-05-07T15:28:40.698Z,99446.09
2023-05-07T15:31:10.149Z,99441.69
2023-05-07T15:33:39.837Z,99440.28
2023-05-07T15:36:08.648Z,99441.59
2023-05-07T15:38:36.938Z,99445.41
2023-05-07T15:41:05.600Z,99451.16
2023-05-07T15:43:34.028Z,99459.66
2023-05-07T15:46:02.497Z,99449.38
2023-05-07T15:48:31.636Z,99463.63
2023-05-07T15:51:01.400Z,99473.00
2023-05-07T15:53:29.737Z,99468.31
2023-05-07T15:55:58.058Z,99474.53
2023-05-07T15:58:26.478Z,99483.25
2023-05-07T16:00:54.888Z,99486.75
2023-05-07T16:03:24.407Z,99486.63
2023-05-07T16:05:52.830Z,99497.84
2023-05-07T16:08:22.557Z,99484.94
2023-05-07T16:10:51.169Z,99500.19
2023-05-07T16:13:20.434Z,99487.69
2023-05-07T16:15:49.193Z,99488.09
2023-05-07T16:18:17.640Z,99490.13
2023-05-07T16:20:46.778Z,99492.09
2023-05-07T16:23:15.103Z,99497.25
2023-05-07T16:25:44.799Z,99493.19
2023-05-07T16:28:13.248Z,99491.91
2023-05-07T16:30:41.646Z,99497.50
2023-05-07T16:33:10.446Z,99498.28
2023-05-07T16:35:38.978Z,99496.28
2023-05-07T16:38:10.502Z,99487.03
2023-05-07T16:40:40.328Z,99491.66
2023-05-07T16:43:10.104Z,99493.13
2023-05-07T16:45:38.581Z,99507.78
2023-05-07T16:48:08.569Z,99500.69
2023-05-07T16:50:37.172Z,99501.16
2023-05-07T16:53:07.992Z,99510.03
2023-05-07T16:55:39.014Z,99507.00
2023-05-07T16:58:09.792Z,99504.41
2023-05-07T17:00:49.983Z,99510.59
2023-05-07T17:03:19.692Z,99509.53
2023-05-07T17:05:48.404Z,99510.59
2023-05-07T17:08:16.839Z,99536.72
2023-05-07T17:10:46.088Z,99529.38
2023-05-07T17:13:15.912Z,99534.81
2023-05-07T17:15:46.532Z,99547.03
2023-05-07T17:18:15.104Z,99557.22
2023-05-07T17:20:43.530Z,99566.25
2023-05-07T17:23:11.881Z,99566.06
2023-05-07T17:25:45.426Z,99572.78
2023-05-07T17:28:15.649Z,99577.69
2023-05-07T17:30:44.121Z,99587.03
2023-05-07T17:33:20.795Z,99585.72
2023-05-07T17:35:50.393Z,99598.28
2023-05-07T17:38:19.225Z,99601.69
2023-05-07T17:40:47.667Z,99609.84
2023-05-07T17:43:17.392Z,99610.75
2023-05-07T17:45:45.816Z,99617.72
2023-05-07T17:48:14.204Z,99620.78
2023-05-07T17:50:42.635Z,99617.28
2023-05-07T17:53:11.454Z,99619.47
2023-05-07T17:55:44.164Z,99622.63
2023-05-07T17:58:13.815Z,99622.38
2023-05-07T18:00:43.604Z,99636.84
2023-05-07T18:03:12.253Z,99641.00
2023-05-07T18:05:41.158Z,99640.72
2023-05-07T18:08:09.889Z,99648.47
2023-05-07T18:10:39.420Z,99651.28
2023-05-07T18:13:07.976Z,99658.13
2023-05-07T18:15:36.383Z,99666.72
2023-05-07T18:18:07.411Z,99660.50
2023-05-07T18:20:35.895Z,99687.38
2023-05-07T18:23:04.850Z,99685.94
2023-05-07T18:25:33.299Z,99693.66
2023-05-07T18:28:01.847Z,99694.66
2023-05-07T18:30:30.214Z,99689.88
2023-05-07T18:32:59.249Z,99701.13
2023-05-07T18:35:28.972Z,99708.50
2023-05-07T18:37:57.709Z,99716.97
2023-05-07T18:40:26.334Z,99709.63
2023-05-07T18:42:55.966Z,99719.75
2023-05-07T18:45:24.327Z,99717.16
2023-05-07T18:47:52.753Z,99721.41
2023-05-07T18:50:21.659Z,99731.22
2023-05-07T18:52:52.402Z,99730.88
2023-05-07T18:55:22.138Z,99743.72
2023-05-07T18:57:50.547Z,99749.06
2023-05-07T19:00:19.916Z,99746.72
2023-05-07T19:02:48.656Z,99752.63
2023-05-07T19:05:18.487Z,99761.59
2023-05-07T19:07:47.825Z,99757.81
2023-05-07T19:10:17.927Z,99760.38
2023-05-07T19:12:46.741Z,99768.25
2023-05-07T19:15:16.198Z,99776.38
2023-05-07T19:17:45.023Z,99788.09
2023-05-07T19:20:14.675Z,99790.63
2023-05-07T19:22:44.011Z,99796.81
2023-05-07T19:25:14.929Z,99801.28
2023-05-07T19:27:45.041Z,99801.09
2023-05-07T19:30:15.276Z,99803.59
2023-05-07T19:32:44.307Z,99805.06
2023-05-07T19:35:14.027Z,99800.13
2023-05-07T19:37:44.629Z,99797.97
2023-05-07T19:40:15.879Z,99801.84
2023-05-07T19:42:46.778Z,99798.88
2023-05-07T19:45:20.168Z,99800.28
2023-05-07T19:47:49.838Z,99806.13
2023-05-07T19:50:19.124Z,99806.97
2023-05-07T19:52:47.883Z,99815.28
2023-05-07T19:55:16.272Z,99829.97
2023-05-07T19:57:50.118Z,99828.34
2023-05-07T20:00:21.257Z,99828.31
2023-05-07T20:02:51.358Z,99826.69
2023-05-07T20:05:20.150Z,99827.53
2023-05-07T20:07:49.107Z,99836.66
2023-05-07T20:10:17.916Z,99841.66
2023-05-07T20:12:47.778Z,99853.56
2023-05-07T20:15:16.982Z,99836.41
2023-05-07T20:17:45.923Z,99843.88
2023-05-07T20:20:14.840Z,99853.84
2023-05-07T20:22:43.421Z,99848.84
2023-05-07T20:25:13.597Z,99858.53
2023-05-07T20:27:42.170Z,99859.91
2023-05-07T20:30:13.926Z,99869.03
2023-05-07T20:32:43.480Z,99856.88
2023-05-07T20:35:12.327Z,99856.63
2023-05-07T20:37:40.849Z,99861.84
2023-05-07T20:40:11.238Z,99875.66
2023-05-07T20:42:39.921Z,99865.44
2023-05-07T20:45:11.905Z,99867.94
2023-05-07T20:47:40.334Z,99864.06
2023-05-07T20:50:09.827Z,99872.06
2023-05-07T20:52:38.292Z,99863.50
2023-05-07T20:55:08.522Z,99871.50
2023-05-07T20:57:37.389Z,99874.00
2023-05-07T21:00:08.036Z,99868.47
2023-05-07T21:02:38.118Z,99875.03
2023-05-07T21:05:07.927Z,99873.94
2023-05-07T21:07:36.473Z,99875.00
2023-05-07T21:10:06.293Z,99883.59
2023-05-07T21:12:34.696Z,99889.38
2023-05-07T21:15:03.054Z,99882.19
2023-05-07T21:17:33.119Z,99867.56
2023-05-07T21:20:03.885Z,99882.47
2023-05-07T21:22:32.323Z,99881.63
2023-05-07T21:25:01.211Z,99889.91
2023-05-07T21:27:30.104Z,99891.84
2023-05-07T21:30:04.247Z,99891.28
2023-05-07T21:32:32.910Z,99890.75
2023-05-07T21:35:02.768Z,99889.06
2023-05-07T21:37:31.180Z,99893.78
2023-05-07T21:39:59.609Z,99900.09
2023-05-07T21:42:29.032Z,99893.78
2023-05-07T21:44:57.692Z,99893.78
2023-05-07T21:47:26.189Z,99898.47
2023-05-07T21:49:54.558Z,99881.06
2023-05-07T21:52:25.999Z,99888.50
2023-05-07T21:54:54.865Z,99885.19
2023-05-07T21:57:23.228Z,99880.78
2023-05-07T21:59:51.549Z,99897.88
2023-05-07T22:02:19.971Z,99896.50
2023-05-07T22:04:48.340Z,99899.78
2023-05-07T22:07:16.679Z,99913.31
2023-05-07T22:09:46.514Z,99912.44
2023-05-07T22:12:14.870Z,99914.94
2023-05-07T22:14:43.332Z,99921.25
2023-05-07T22:17:11.738Z,99914.63
2023-05-07T22:19:40.058Z,99918.75
2023-05-07T22:22:08.409Z,99928.41
2023-05-07T22:24:36.760Z,99925.06
2023-05-07T22:27:06.572Z,99910.72
2023-05-07T22:29:34.932Z,99901.88
2023-05-07T22:32:03.644Z,99897.72
2023-05-07T22:34:32.005Z,99897.16
2023-05-07T22:37:00.274Z,99907.38
2023-05-07T22:39:31.244Z,99912.06
2023-05-07T22:41:59.539Z,99902.09
2023-05-07T22:44:29.548Z,99905.44
2023-05-07T22:46:58.030Z,99908.19
2023-05-07T22:49:26.473Z,99915.88
2023-05-07T22:51:54.769Z,99915.31
2023-05-07T22:54:24.252Z,99913.91
2023-05-07T22:56:54.028Z,99915.28
2023-05-07T22:59:22.558Z,99916.66
2023-05-07T23:01:52.441Z,99912.75
2023-05-07T23:04:20.858Z,99913.03
2023-05-07T23:06:49.204Z,99914.66
2023-05-07T23:09:17.559Z,99917.94
2023-05-07T23:11:46.027Z,99914.91
2023-05-07T23:14:14.375Z,99919.03
2023-05-07T23:16:42.794Z,99915.72
2023-05-07T23:19:13.002Z,99914.88
2023-05-07T23:21:41.565Z,99914.03
2023-05-07T23:24:10.311Z,99913.75
2023-05-07T23:26:38.890Z,99910.47
2023-05-07T23:29:07.266Z,99919.03
2023-05-07T23:31:36.322Z,99919.63
2023-05-07T23:34:04.794Z,99916.31
2023-05-07T23:36:34.925Z,99912.47
2023-05-07T23:39:03.466Z,99910.56
2023-05-07T23:41:32.035Z,99906.69
2023-05-07T23:44:00.430Z,99908.63
2023-05-07T23:46:28.812Z,99912.28
2023-05-07T23:48:57.174Z,99908.16
2023-05-07T23:51:25.574Z,99897.41
2023-05-07T23:53:55.319Z,99905.97
2023-05-07T23:56:23.925Z,99908.75
2023-05-07T23:58:52.266Z,99909.63
